^^
Refsnesbakken Borettslag Station Historical Data
 
Daily Summary for May 05, 2026 Units:  Metric    English   Both
Daily Weekly Monthly Yearly
  Current: High: Low: Average:
Temperature: 4.7 °C 7.5 °C 4.7 °C 5.9 °C
Dew Point: -4 °C -0.1 °C -4 °C -2.1 °C
Humidity: 53.5% 59% 52.5% 56%
Wind Speed: 16.7km/h 22.2km/h 14.8km/h 19.2km/h
Wind Gust: 16.7km/h 22.5km/h - -
WindWNW - - NW
Pressure: 1011.7 hPa 1011.7 hPa 1009.6 hPa -
Precipitation: 0.0 mm      
 
 
Tabular Data for May 05, 2026
Time Temperature Dew Point Pressure Wind Wind Speed Wind Gust Humidity Rainfall Rate (Hourly) solar
00:09 7.5 °C -0.2 °C 1009.7 hPa NW 20.4 km/h 20.9 km/h 58% 0.0 mm 0 W/m2
00:14 7.4 °C -0.1 °C 1009.6 hPa NW 20.4 km/h 20.9 km/h 58.7% 0.0 mm 0 W/m2
00:19 7.3 °C -0.7 °C 1009.8 hPa NW 20.4 km/h 20.9 km/h 56.8% 0.0 mm 0 W/m2
00:24 7.3 °C -1 °C 1009.9 hPa NW 20.4 km/h 20.9 km/h 55.8% 0.0 mm 0 W/m2
00:29 7.2 °C -1.4 °C 1010.0 hPa NW 20.4 km/h 20.9 km/h 54.7% 0.0 mm 0 W/m2
00:34 7.1 °C -0.8 °C 1010.0 hPa NW 21.8 km/h 22.2 km/h 57.1% 0.0 mm 0 W/m2
00:39 7.1 °C -0.9 °C 1009.9 hPa NW 22.2 km/h 22.5 km/h 56.7% 0.0 mm 0 W/m2
00:44 7 °C -1.4 °C 1010.0 hPa NW 22.2 km/h 22.5 km/h 55.3% 0.0 mm 0 W/m2
00:49 6.9 °C -1.2 °C 1010.1 hPa NW 22.2 km/h 22.5 km/h 56% 0.0 mm 0 W/m2
00:54 6.9 °C -1 °C 1010.0 hPa NW 22.2 km/h 22.5 km/h 57.2% 0.0 mm 0 W/m2
00:59 6.8 °C -1.2 °C 1010.1 hPa NW 22.2 km/h 22.5 km/h 56.7% 0.0 mm 0 W/m2
01:04 6.7 °C -1.1 °C 1010.2 hPa WNW 20 km/h 22.5 km/h 57.4% 0.0 mm 0 W/m2
01:09 6.6 °C -1.4 °C 1010.3 hPa WNW 16.7 km/h 22.5 km/h 56.6% 0.0 mm 0 W/m2
01:14 6.5 °C -1.6 °C 1010.4 hPa WNW 16.7 km/h 16.7 km/h 56.3% 0.0 mm 0 W/m2
01:19 6.4 °C -2.2 °C 1010.6 hPa WNW 16.7 km/h 16.7 km/h 54.2% 0.0 mm 0 W/m2
01:24 6.3 °C -1.9 °C 1010.6 hPa WNW 16.7 km/h 16.7 km/h 55.8% 0.0 mm 0 W/m2
01:29 6.2 °C -1.7 °C 1010.6 hPa WNW 16.7 km/h 16.7 km/h 56.8% 0.0 mm 0 W/m2
01:34 6.1 °C -1.6 °C 1010.8 hPa NW 18.1 km/h 18.5 km/h 57.7% 0.0 mm 0 W/m2
01:39 6.1 °C -1.7 °C 1010.8 hPa NW 18.5 km/h 19.3 km/h 57.3% 0.0 mm 0 W/m2
01:44 6.1 °C -1.6 °C 1010.8 hPa NW 18.5 km/h 19.3 km/h 57.9% 0.0 mm 0 W/m2
01:49 6 °C -1.7 °C 1010.8 hPa NW 18.5 km/h 19.3 km/h 57.6% 0.0 mm 0 W/m2
01:54 5.9 °C -1.8 °C 1010.9 hPa NW 18.5 km/h 19.3 km/h 58% 0.0 mm 0 W/m2
01:59 5.8 °C -1.6 °C 1010.8 hPa NW 18.5 km/h 19.3 km/h 58.9% 0.0 mm 0 W/m2
02:04 5.7 °C -1.7 °C 1010.8 hPa NW 20 km/h 20.4 km/h 59% 0.0 mm 0 W/m2
02:09 5.7 °C -1.8 °C 1010.8 hPa NW 20.4 km/h 20.9 km/h 58.5% 0.0 mm 0 W/m2
02:14 5.6 °C -1.9 °C 1010.9 hPa NW 20.4 km/h 20.9 km/h 58.5% 0.0 mm 0 W/m2
02:19 5.5 °C -2 °C 1011.0 hPa NW 20.4 km/h 20.9 km/h 58.2% 0.0 mm 0 W/m2
02:24 5.5 °C -2.3 °C 1011.0 hPa NW 20.4 km/h 20.9 km/h 57.4% 0.0 mm 0 W/m2
02:29 5.4 °C -2.5 °C 1011.0 hPa NW 20.4 km/h 20.9 km/h 56.7% 0.0 mm 0 W/m2
02:34 5.4 °C -2.6 °C 1011.0 hPa NW 18.2 km/h 20.9 km/h 56.5% 0.0 mm 0 W/m2
02:39 5.3 °C -2.9 °C 1011.0 hPa NW 14.8 km/h 20.9 km/h 55.5% 0.0 mm 0 W/m2
02:44 5.3 °C -2.8 °C 1011.0 hPa NW 14.8 km/h 14.8 km/h 56% 0.0 mm 0 W/m2
02:49 5.2 °C -3 °C 1011.0 hPa NW 14.8 km/h 14.8 km/h 55.5% 0.0 mm 0 W/m2
02:54 5.2 °C -3.3 °C 1011.1 hPa NW 14.8 km/h 14.8 km/h 54.7% 0.0 mm 0 W/m2
02:59 5.1 °C -3.2 °C 1011.1 hPa NW 14.8 km/h 14.8 km/h 55.1% 0.0 mm 0 W/m2
03:04 5.1 °C -3.3 °C 1011.2 hPa WNW 20.6 km/h 22.2 km/h 54.8% 0.0 mm 0 W/m2
03:09 5 °C -3.3 °C 1011.3 hPa WNW 22.2 km/h 22.5 km/h 54.7% 0.0 mm 0 W/m2
03:14 5 °C -3.5 °C 1011.3 hPa WNW 22.2 km/h 22.5 km/h 54.1% 0.0 mm 0 W/m2
03:19 5 °C -3.9 °C 1011.3 hPa WNW 22.2 km/h 22.5 km/h 52.8% 0.0 mm 0 W/m2
03:24 5 °C -3.4 °C 1011.5 hPa WNW 22.2 km/h 22.5 km/h 54.8% 0.0 mm 0 W/m2
03:29 5 °C -4 °C 1011.5 hPa WNW 22.2 km/h 22.5 km/h 52.5% 0.0 mm 0 W/m2
03:34 4.9 °C -3.9 °C 1011.5 hPa WNW 20 km/h 22.5 km/h 52.7% 0.0 mm 0 W/m2
03:39 4.8 °C -3.9 °C 1011.5 hPa WNW 16.7 km/h 22.5 km/h 53% 0.0 mm 0 W/m2
03:44 4.8 °C -3.7 °C 1011.6 hPa WNW 16.7 km/h 16.7 km/h 54.4% 0.0 mm 0 W/m2
03:49 4.7 °C -4 °C 1011.7 hPa WNW 16.7 km/h 16.7 km/h 53.5% 0.0 mm 0 W/m2
Refsnesbakken, Moss, Norway
Compliments of Weather Underground - 2 mb